• Join FlightAware (Why Join?)
  • Login
  • US Flag 
03:48PM EDT


 

Airport Tracker/Info


-or-


 

Live Flight TrackerFlight Track Log ✈ WWI24 ✈ 28-Apr-2013 ✈ KEWR - KMHV

Flight Track Log - Related Links

Times and Time Zones

All times are in EDT time to prevent confusion due to time zone crossing. See the WWI24 flight status page for this flight to view local times or setup timezone preferences in your user account.

Time Position Orientation Groundspeed Altitude Reporting Facility
EDT Latitude Longitude Course Direction KTS MPH feet Rate Location/Type
11:59PM 40.6333 -74.1833 217° Southwest 217 250 2,900  Level New York TRACON
12:00AM 40.5833 -74.2333 217° Southwest 239 275 5,800 2,880 Climbing New York TRACON
12:01AM 40.6000 -74.3167 285° West 276 318 8,400 2,760 Climbing New York TRACON
12:03AM 40.6292 -74.5856 278° West 316 364 15,300 2,640 Climbing New York Center
12:04AM 40.6336 -74.7061 273° West 328 377 17,700 1,860 Climbing New York Center
12:05AM 40.6397 -74.8294 274° West 342 394 19,200 1,680 Climbing New York Center
12:06AM 40.6517 -74.9642 277° West 360 414 21,100 2,100 Climbing New York Center
12:07AM 40.6614 -75.1017 275° West 376 433 23,400 2,160 Climbing New York Center
12:08AM 40.6706 -75.2417 275° West 387 445 25,400 1,980 Climbing New York Center
12:09AM 40.6775 -75.3900 274° West 399 459 27,400 1,980 Climbing New York Center
12:10AM 40.6864 -75.5331 275° West 404 465 29,500 2,100 Climbing New York Center
12:11AM 40.6950 -75.6786 275° West 404 465 31,600 2,040 Climbing New York Center
12:12AM 40.7036 -75.8217 275° West 404 465 33,600 2,640 Climbing New York Center
12:13AM 40.7067 -75.9422 272° West 389 448 37,000 1,980 Climbing New York Center
12:14AM 40.7156 -76.0717 275° West 377 434 37,600 660 Climbing New York Center
12:15AM 40.7219 -76.2092 274° West 372 428 38,400 900 Climbing New York Center
12:16AM 40.7278 -76.3492 273° West 372 428 39,400 720 Climbing New York Center
12:17AM 40.7378 -76.4869 276° West 377 434 39,900 420 Climbing New York Center
12:18AM 40.7431 -76.6356 273° West 390 449 40,300 360 Climbing New York Center
12:19AM 40.7522 -76.7842 275° West 407 468 40,700 480 Climbing New York Center
12:20AM 40.7589 -76.9408 273° West 418 481 41,300 600 Climbing New York Center
12:21AM 40.7658 -77.0869 274° West 424 488 42,000 780 Climbing New York Center
12:22AM 40.7742 -77.2411 274° West 424 488 42,900 480 Climbing New York Center
12:23AM 40.7806 -77.3869 273° West 424 488 43,000  Climbing New York Center
12:25AM 40.7942 -77.7197 273° West 413 475 43,000  Level Cleveland Center
12:26AM 40.8000 -77.8731 273° West 418 481 43,000  Level Cleveland Center
12:27AM 40.8078 -78.0264 274° West 423 487 43,000  Level Cleveland Center
12:28AM 40.8111 -78.1800 272° West 423 487 43,000  Level Cleveland Center
12:29AM 40.8164 -78.3306 273° West 423 487 43,000  Level Cleveland Center
12:30AM 40.8214 -78.4869 272° West 423 487 43,000  Level Cleveland Center
12:31AM 40.8261 -78.6403 272° West 423 487 43,000  Level Cleveland Center
12:32AM 40.8328 -78.7967 273° West 423 487 43,000  Level Cleveland Center
12:33AM 40.8389 -78.9172 274° West 418 481 43,000  Level Cleveland Center
12:34AM 40.8453 -79.0844 273° West 418 481 43,000  Level Cleveland Center
12:35AM 40.8494 -79.2408 272° West 418 481 43,000  Level Cleveland Center
12:36AM 40.8553 -79.3944 273° West 418 481 43,000  Level Cleveland Center
12:37AM 40.8567 -79.5508 271° West 418 481 43,000  Level Cleveland Center
12:38AM 40.8622 -79.7047 273° West 418 481 43,000  Level Cleveland Center
12:39AM 40.8633 -79.8611 271° West 423 487 43,000  Level Cleveland Center
12:40AM 40.8683 -80.0119 273° West 423 487 43,000  Level Cleveland Center
12:41AM 40.8711 -80.1686 271° West 423 487 43,000  Level Cleveland Center
12:42AM 40.8736 -80.3194 271° West 423 487 43,000  Level Cleveland Center
12:43AM 40.8758 -80.4706 271° West 423 487 43,000  Level Cleveland Center
12:44AM 40.8781 -80.6269 271° West 423 487 43,000  Level Cleveland Center
12:45AM 40.8842 -80.7836 273° West 423 487 43,000  Level Cleveland Center
12:46AM 40.8858 -80.9403 271° West 423 487 43,000  Level Cleveland Center
12:47AM 40.8831 -81.1186 269° West 430 495 43,000  Level Cleveland Center
12:48AM 40.8864 -81.2753 272° West 436 502 43,000  Level Cleveland Center
12:49AM 40.8875 -81.4317 271° West 436 502 43,000  Level Cleveland Center
12:50AM 40.8883 -81.5883 270° West 436 502 43,000  Level Cleveland Center
12:51AM 40.8889 -81.7478 270° West 436 502 43,000  Level Cleveland Center
12:52AM 40.8892 -81.9069 270° West 436 502 43,000  Level Cleveland Center
12:53AM 40.8917 -82.0469 271° West 436 502 43,000  Level Cleveland Center
12:54AM 40.8917 -82.2036 270° West 436 502 43,000  Level Cleveland Center
12:55AM 40.8914 -82.3603 270° West 436 502 43,000  Level Cleveland Center
12:56AM 40.8908 -82.5167 270° West 436 502 43,000  Level Cleveland Center
12:57AM 40.8897 -82.6897 270° West 436 502 43,000  Level Cleveland Center
12:58AM 40.8889 -82.8519 270° West 436 502 43,000  Level Cleveland Center
12:59AM 40.8897 -83.0083 270° West 441 507 43,000  Level Cleveland Center
01:00AM 40.8883 -83.1650 269° West 436 502 43,000  Level Cleveland Center
01:01AM 40.8914 -83.3081 272° West 436 502 43,000  Level Cleveland Center
01:02AM 40.8875 -83.4644 268° West 436 502 43,000  Level Cleveland Center
01:03AM 40.8856 -83.6236 269° West 436 502 43,000  Level Cleveland Center
01:05AM 40.8833 -83.8869 269° West 438 504 43,000  Level Chicago Center
01:06AM 40.8811 -84.0550 269° West 438 504 43,000  Level Indianapolis Center
01:07AM 40.8783 -84.2083 269° West 439 505 43,000  Level Chicago Center
01:08AM 40.8758 -84.3714 269° West 443 510 43,000  Level Chicago Center
01:09AM 40.8731 -84.5308 269° West 437 503 43,000  Level Chicago Center
01:10AM 40.8703 -84.6900 269° West 434 499 43,000  Level Chicago Center
01:11AM 40.8667 -84.8486 268° West 433 498 43,000  Level Chicago Center
01:12AM 40.8636 -85.0075 269° West 432 497 43,000  Level Chicago Center
01:13AM 40.8600 -85.1644 268° West 429 494 43,000  Level Chicago Center
01:14AM 40.8558 -85.3225 268° West 430 495 43,000  Level Chicago Center
01:15AM 40.8525 -85.4822 268° West 432 497 43,000  Level Chicago Center
01:16AM 40.8467 -85.6431 267° West 435 501 43,000  Level Chicago Center
01:17AM 40.8436 -85.8053 269° West 442 509 43,000  Level Chicago Center
01:18AM 40.8383 -85.9667 268° West 440 506 43,000  Level Chicago Center
01:19AM 40.8333 -86.1311 268° West 440 506 43,000  Level Chicago Center
01:20AM 40.8286 -86.2922 268° West 443 510 43,000  Level Chicago Center
01:21AM 40.8236 -86.4503 268° West 437 503 43,000  Level Chicago Center
01:22AM 40.8178 -86.6092 267° West 435 501 43,000  Level Chicago Center
01:23AM 40.8114 -86.7661 267° West 433 498 43,000  Level Chicago Center
01:24AM 40.8075 -86.9208 268° West 426 490 43,000  Level Chicago Center
01:25AM 40.8014 -87.0822 267° West 437 503 43,000  Level Chicago Center
01:26AM 40.7933 -87.2464 266° West 444 511 43,000  Level Chicago Center
01:27AM 40.7847 -87.4097 266° West 444 511 43,000  Level Chicago Center
01:28AM 40.7794 -87.5678 268° West 435 501 43,000  Level Chicago Center
01:29AM 40.7717 -87.7253 266° West 431 496 43,000  Level Chicago Center
01:30AM 40.7658 -87.8794 267° West 424 488 43,000  Level Chicago Center
01:31AM 40.7583 -88.0336 266° West 421 484 43,000  Level Chicago Center
01:32AM 40.7503 -88.1861 266° West 419 482 43,000  Level Chicago Center
01:33AM 40.7433 -88.3389 267° West 419 482 43,000 180 Level Chicago Center
01:34AM 40.7350 -88.4914 266° West 418 481 43,400 420 Climbing Chicago Center
01:35AM 40.7275 -88.6453 266° West 422 486 43,900 480 Climbing Chicago Center
01:36AM 40.7194 -88.7972 266° West 418 481 44,400 480 Climbing Chicago Center
01:37AM 40.7103 -88.9536 266° West 406 467 44,900 300 Climbing Chicago Center
01:38AM 40.7017 -89.1033 266° West 408 470 45,000  Climbing Chicago Center
01:39AM 40.6925 -89.2561 266° West 418 481 45,000  Level Chicago Center
01:40AM 40.6828 -89.4075 265° West 417 480 45,000  Level Chicago Center
01:41AM 40.6733 -89.5567 265° West 412 474 45,000  Level Chicago Center
01:42AM 40.6653 -89.6956 266° West 416 479 45,000  Level Chicago Center
01:43AM 40.6594 -89.8494 267° West 422 486 45,000  Level Chicago Center
01:44AM 40.6464 -90.0019 264° West 425 489 45,000  Level Chicago Center
01:45AM 40.6381 -90.1550 266° West 423 487 45,000  Level Chicago Center
01:46AM 40.6250 -90.3094 264° West 428 493 45,000  Level Chicago Center
01:47AM 40.6150 -90.4611 265° West 421 484 45,000  Level Chicago Center
01:48AM 40.6042 -90.6136 265° West 418 481 45,000  Level Chicago Center
01:49AM 40.5922 -90.7672 264° West 421 484 45,000  Level Chicago Center
01:50AM 40.5811 -90.9189 265° West 418 481 45,000  Level Chicago Center
01:51AM 40.5708 -91.0725 265° West 420 483 45,000  Level Chicago Center
01:52AM 40.5592 -91.2225 264° West 413 475 45,000  Level Chicago Center
01:53AM 40.5469 -91.3878 264° West 415 478 45,000  Level Chicago Center
01:54AM 40.5350 -91.5386 264° West 418 481 45,000  Level Chicago Center
01:55AM 40.5233 -91.6872 264° West 414 476 45,000  Level Chicago Center
01:55AM 40.5175 -91.7472 263° West 415 478 45,000  Level Kansas City Center
01:56AM 40.5056 -91.8961 264° West 414 476 45,000  Level Kansas City Center
01:57AM 40.4931 -92.0458 264° West 416 479 45,000  Level Kansas City Center
01:58AM 40.4811 -92.1939 264° West 414 476 45,000  Level Kansas City Center
01:59AM 40.4683 -92.3422 264° West 414 476 45,000  Level Kansas City Center
02:00AM 40.4547 -92.4881 263° West 416 479 45,000  Level Kansas City Center
02:01AM 40.4417 -92.6403 264° West 419 482 45,000  Level Kansas City Center
02:02AM 40.4281 -92.7925 263° West 417 480 45,000  Level Kansas City Center
02:03AM 40.4131 -92.9628 263° West 420 483 45,000  Level Kansas City Center
02:04AM 40.3997 -93.1150 263° West 419 482 45,000  Level Kansas City Center
02:05AM 40.3847 -93.2667 263° West 422 486 45,000  Level Kansas City Center
02:06AM 40.3703 -93.4206 263° West 428 493 45,000  Level Kansas City Center
02:07AM 40.3544 -93.5728 262° West 427 491 45,000  Level Kansas City Center
02:08AM 40.3414 -93.7269 264° West 427 491 45,000  Level Kansas City Center
02:09AM 40.3256 -93.8803 262° West 429 494 45,000  Level Kansas City Center
02:10AM 40.3097 -94.0331 262° West 427 491 45,000  Level Kansas City Center
02:11AM 40.2953 -94.1892 263° West 426 490 45,000  Level Kansas City Center
02:12AM 40.2797 -94.3353 262° West 425 489 45,000  Level Kansas City Center
02:13AM 40.2672 -94.4275 260° West 424 488 45,000  Level Minneapolis Center
02:14AM 40.2519 -94.5683 262° West 419 482 45,000  Level Minneapolis Center
02:15AM 40.2358 -94.7178 262° West 417 480 45,000  Level Minneapolis Center
02:16AM 40.2206 -94.8683 262° West 416 479 45,000  Level Minneapolis Center
02:17AM 40.2047 -95.0189 262° West 416 479 45,000  Level Minneapolis Center
02:18AM 40.1889 -95.1692 262° West 416 479 45,000  Level Minneapolis Center
02:19AM 40.1714 -95.3211 261° West 419 482 45,000  Level Minneapolis Center
02:20AM 40.1553 -95.4714 262° West 419 482 45,000  Level Minneapolis Center
02:21AM 40.1378 -95.6219 261° West 419 482 45,000  Level Minneapolis Center
02:22AM 40.1200 -95.7761 261° West 422 486 45,000  Level Minneapolis Center
02:23AM 40.1022 -95.9258 261° West 419 482 45,000  Level Minneapolis Center
02:24AM 40.0842 -96.0747 261° West 416 479 45,000  Level Minneapolis Center
02:25AM 40.0656 -96.2292 261° West 425 489 45,000  Level Minneapolis Center
02:26AM 40.0469 -96.3847 261° West 430 495 45,000  Level Minneapolis Center
02:27AM 40.0283 -96.5381 261° West 429 494 45,000  Level Minneapolis Center
02:28AM 40.0100 -96.6886 261° West 423 487 45,000  Level Minneapolis Center
02:29AM 39.9903 -96.8369 260° West 418 481 45,000  Level Minneapolis Center
02:30AM 39.9717 -96.9856 261° West 416 479 45,000  Level Minneapolis Center
02:31AM 39.9531 -97.1372 261° West 420 483 45,000  Level Minneapolis Center
02:32AM 39.9336 -97.2872 260° West 421 484 45,000  Level Minneapolis Center
02:33AM 39.9114 -97.4486 260° West 422 486 45,000  Level Minneapolis Center
02:34AM 39.8919 -97.5992 260° West 421 484 45,000  Level Minneapolis Center
02:35AM 39.8717 -97.7503 260° West 422 486 45,000  Level Minneapolis Center
02:36AM 39.8511 -97.9000 260° West 421 484 45,000  Level Minneapolis Center
02:37AM 39.8306 -98.0531 260° West 425 489 45,000  Level Minneapolis Center
02:38AM 39.8092 -98.2044 260° West 426 490 45,000  Level Minneapolis Center
02:39AM 39.7892 -98.3558 260° West 425 489 45,000  Level Minneapolis Center
02:40AM 39.7669 -98.5069 259° West 424 488 45,000  Level Minneapolis Center
02:41AM 39.7450 -98.6583 259° West 424 488 45,000  Level Minneapolis Center
02:42AM 39.7233 -98.8097 260° West 425 489 45,000  Level Minneapolis Center
02:43AM 39.7108 -98.9008 260° West 424 488 45,000  Level Denver Center
02:44AM 39.6889 -99.0519 259° West 425 489 45,000  Level Denver Center
02:45AM 39.6661 -99.2025 259° West 424 488 45,000  Level Denver Center
02:46AM 39.6442 -99.3522 259° West 423 487 45,000  Level Denver Center
02:47AM 39.6214 -99.5022 259° West 423 487 45,000  Level Denver Center
02:48AM 39.5992 -99.6533 259° West 424 488 45,000  Level Denver Center
02:49AM 39.5758 -99.8025 259° West 422 486 45,000  Level Denver Center
02:50AM 39.5494 -99.9694 258° West 424 488 45,000  Level Denver Center
02:51AM 39.5275 -100.1144 259° West 427 491 45,000  Level Denver Center
02:52AM 39.5053 -100.2583 259° West 428 493 45,000  Level Denver Center
02:53AM 39.4825 -100.4031 259° West 427 491 45,000  Level Denver Center
02:54AM 39.4553 -100.5692 258° West 422 486 45,000  Level Denver Center
02:55AM 39.4336 -100.7092 259° West 416 479 45,000  Level Denver Center
02:56AM 39.4106 -100.8519 258° West 421 484 45,000  Level Denver Center
02:57AM 39.3833 -101.0161 258° West 418 481 45,000  Level Denver Center
02:58AM 39.3606 -101.1536 258° West 412 474 45,000  Level Denver Center
02:59AM 39.3383 -101.2914 258° West 409 471 45,000  Level Denver Center
03:00AM 39.3142 -101.4311 257° West 414 476 45,000  Level Denver Center
03:01AM 39.2850 -101.5969 257° West 423 487 45,000  Level Denver Center
03:02AM 39.2633 -101.7292 258° West 425 489 45,000  Level Denver Center
03:03AM 39.2347 -101.8953 258° West 426 490 45,000  Level Denver Center
03:04AM 39.2100 -102.0367 257° West 424 488 45,000  Level Denver Center
03:05AM 39.1856 -102.1783 257° West 424 488 45,000  Level Denver Center
03:06AM 39.1558 -102.3433 257° West 425 489 45,000  Level Denver Center
03:07AM 39.1311 -102.4847 257° West 425 489 45,000  Level Denver Center
03:08AM 39.1061 -102.6239 257° West 419 482 45,000  Level Denver Center
03:09AM 39.0806 -102.7667 257° West 417 480 45,000  Level Denver Center
03:10AM 39.0539 -102.9119 257° West 415 478 45,000  Level Denver Center
03:11AM 39.0269 -103.0600 257° West 420 483 45,000  Level Denver Center
03:12AM 38.9997 -103.2092 257° West 424 488 45,000  Level Denver Center
03:13AM 38.9711 -103.3583 256° West 425 489 45,000  Level Denver Center
03:14AM 38.9433 -103.5089 257° West 427 491 45,000  Level Denver Center
03:15AM 38.9150 -103.6603 257° West 430 495 45,000  Level Denver Center
03:16AM 38.8864 -103.8139 257° West 437 503 45,000  Level Denver Center
03:17AM 38.8569 -103.9664 256° West 436 502 45,000  Level Denver Center
03:18AM 38.8267 -104.1203 256° West 439 505 45,000  Level Denver Center
03:19AM 38.7967 -104.2767 256° West 445 512 45,000  Level Denver Center
03:20AM 38.7667 -104.4303 256° West 441 507 45,000  Level Denver Center
03:21AM 38.7356 -104.5831 255° West 437 503 45,000  Level Denver Center
03:22AM 38.7069 -104.7317 256° West 427 491 45,000  Level Denver Center
03:23AM 38.6767 -104.8800 255° West 425 489 45,000  Level Denver Center
03:24AM 38.6472 -105.0278 256° West 423 487 45,000  Level Denver Center
03:25AM 38.6161 -105.1772 255° West 427 491 45,000  Level Denver Center
03:26AM 38.5856 -105.3300 256° West 437 503 45,000  Level Denver Center
03:27AM 38.5547 -105.4811 255° West 436 502 45,000  Level Denver Center
03:28AM 38.5228 -105.6328 255° West 438 504 45,000  Level Denver Center
03:29AM 38.4908 -105.7839 255° West 436 502 45,000  Level Denver Center
03:30AM 38.4619 -105.9194 255° West 434 499 45,000  Level Denver Center
03:31AM 38.4278 -106.0842 255° West 431 496 45,000  Level Denver Center
03:32AM 38.3953 -106.2314 254° West 441 507 45,000  Level Denver Center
03:33AM 38.3633 -106.3781 255° West 429 494 45,000  Level Denver Center
03:34AM 38.3333 -106.5211 255° West 425 489 45,000  Level Denver Center
03:35AM 38.3031 -106.6586 254° West 422 486 45,000  Level Denver Center
03:36AM 38.2672 -106.8203 254° West 424 488 45,000  Level Denver Center
03:37AM 38.2364 -106.9578 254° West 423 487 45,000  Level Denver Center
03:38AM 38.2042 -107.1047 254° West 428 493 45,000  Level Denver Center
03:39AM 38.1692 -107.2606 254° West 427 491 45,000  Level Denver Center
03:40AM 38.1364 -107.4017 254° West 433 498 45,000  Level Denver Center
03:41AM 38.1064 -107.5414 255° West 430 495 45,000  Level Denver Center
03:42AM 38.0728 -107.6878 254° West 429 494 45,000  Level Denver Center
03:43AM 38.0411 -107.8244 254° West 426 490 45,000  Level Denver Center
03:44AM 38.0028 -107.9886 254° West 433 498 45,000  Level Denver Center
03:45AM 37.9703 -108.1292 254° West 435 501 45,000  Level Denver Center
03:46AM 37.9381 -108.2672 254° West 431 496 45,000  Level Denver Center
03:47AM 37.9000 -108.4289 253° West 429 494 45,000  Level Denver Center
03:48AM 37.8678 -108.5672 254° West 429 494 45,000  Level Denver Center
03:49AM 37.8353 -108.7028 253° West 424 488 45,000  Level Denver Center
03:50AM 37.7981 -108.8608 253° West 423 487 45,000  Level Denver Center
03:51AM 37.7653 -108.9936 253° West 419 482 45,000  Level Denver Center
03:52AM 37.7322 -109.1283 253° West 420 483 45,000  Level Denver Center
03:53AM 37.6939 -109.2886 253° West 427 491 45,000  Level Denver Center
03:54AM 37.6597 -109.4261 253° West 429 494 45,000  Level Denver Center
03:55AM 37.6261 -109.5608 253° West 424 488 45,000  Level Denver Center
03:56AM 37.5922 -109.6964 253° West 426 490 45,000  Level Denver Center
03:57AM 37.5536 -109.8533 253° West 423 487 45,000  Level Denver Center
03:58AM 37.5200 -109.9889 253° West 424 488 45,000  Level Denver Center
03:59AM 37.4908 -110.1017 252° West 425 489 45,000  Level Denver Center
04:00AM 37.4458 -110.2789 252° West 428 493 45,000  Level Denver Center
04:01AM 37.4097 -110.4203 252° West 426 490 45,000  Level Denver Center
04:02AM 37.3739 -110.5622 252° West 427 491 45,000  Level Denver Center
04:03AM 37.3364 -110.7056 252° West 430 495 45,000  Level Denver Center
04:04AM 37.2992 -110.8472 252° West 427 491 45,000  Level Denver Center
04:05AM 37.2614 -110.9903 252° West 431 496 45,000  Level Denver Center
04:06AM 37.2236 -111.1333 252° West 432 497 45,000  Level Denver Center
04:07AM 37.1867 -111.2747 252° West 428 493 45,000  Level Denver Center
04:08AM 37.1489 -111.4164 252° West 429 494 45,000  Level Denver Center
04:09AM 37.1117 -111.5592 252° West 430 495 45,000  Level Denver Center
04:10AM 37.0736 -111.6997 251° West 428 493 45,000  Level Denver Center
04:11AM 37.0353 -111.8419 251° West 429 494 45,000  Level Denver Center
04:12AM 36.9978 -111.9819 251° West 426 490 45,000  Level Denver Center
04:13AM 36.9594 -112.1214 251° West 425 489 45,000  Level Denver Center
04:14AM 36.9358 -112.2039 250° West 424 488 45,000  Level Los Angeles Center
04:15AM 36.8967 -112.3450 251° West 426 490 45,000  Level Los Angeles Center
04:16AM 36.8572 -112.4856 251° West 427 491 45,000  Level Los Angeles Center
04:17AM 36.8186 -112.6278 251° West 431 496 45,000  Level Los Angeles Center
04:18AM 36.7797 -112.7686 251° West 430 495 45,000  Level Los Angeles Center
04:19AM 36.7386 -112.9094 250° West 430 495 45,000  Level Los Angeles Center
04:20AM 36.6997 -113.0494 251° West 429 494 45,000  Level Los Angeles Center
04:21AM 36.6603 -113.1883 251° West 426 490 45,000  Level Los Angeles Center
04:22AM 36.6208 -113.3275 251° West 427 491 45,000  Level Los Angeles Center
04:23AM 36.5811 -113.4667 250° West 426 490 45,000  Level Los Angeles Center
04:24AM 36.5414 -113.6064 251° West 428 493 45,000  Level Los Angeles Center
04:25AM 36.5042 -113.7342 250° West 426 490 45,000  Level Los Angeles Center
04:26AM 36.4642 -113.8733 250° West 427 491 45,000  Level Los Angeles Center
04:27AM 36.4239 -114.0106 250° West 425 489 45,000  Level Los Angeles Center
04:28AM 36.3836 -114.1481 250° West 423 487 45,000  Level Los Angeles Center
04:29AM 36.3431 -114.2869 250° West 426 490 45,000  Level Los Angeles Center
04:30AM 36.3022 -114.4253 250° West 428 493 45,000  Level Los Angeles Center
04:31AM 36.2606 -114.5628 249° West 426 490 45,000  Level Los Angeles Center
04:32AM 36.2194 -114.7019 250° West 428 493 45,000  Level Los Angeles Center
04:33AM 36.1767 -114.8411 249° West 429 494 45,000  Level Los Angeles Center
04:34AM 36.1342 -114.9792 249° West 428 493 45,000  Level Los Angeles Center
04:35AM 36.0917 -115.1186 249° West 429 494 45,000  Level Los Angeles Center
04:36AM 36.0483 -115.2578 249° West 430 495 45,000  Level Los Angeles Center
04:37AM 36.0019 -115.3978 248° West 434 499 45,000  Level Los Angeles Center
04:38AM 35.9569 -115.5369 248° West 432 497 45,000  Level Los Angeles Center
04:39AM 35.9119 -115.6753 248° West 431 496 45,000  Level Los Angeles Center
04:40AM 35.8658 -115.8122 247° West 431 496 45,000 -600 Level Los Angeles Center
04:41AM 35.8222 -115.9475 248° West 434 499 43,800 -1,740 Descending Los Angeles Center
04:42AM 35.7758 -116.0861 248° West 439 505 41,600 -2,220 Descending Los Angeles Center
04:43AM 35.7303 -116.2225 248° West 434 499 39,400 -2,220 Descending Los Angeles Center
04:44AM 35.6836 -116.3603 247° West 437 503 37,200 -2,520 Descending Los Angeles Center
04:45AM 35.6364 -116.5000 247° West 441 507 34,400 -2,880 Descending Los Angeles Center
04:46AM 35.5883 -116.6406 247° West 449 517 31,500 -3,000 Descending Los Angeles Center
04:47AM 35.5400 -116.7836 247° West 455 524 28,400 -3,180 Descending Los Angeles Center
04:48AM 35.4911 -116.9239 247° West 450 518 25,200 -3,180 Descending Los Angeles Center
04:49AM 35.4444 -117.0594 247° West 441 507 22,100 -3,060 Descending Los Angeles Center
04:50AM 35.3997 -117.1867 247° West 419 482 19,100 -2,400 Descending Los Angeles Center
04:51AM 35.3581 -117.3061 247° West 402 463 17,400 -1,920 Descending Los Angeles Center
04:52AM 35.3181 -117.4208 247° West 384 442 15,300 -1,920 Descending Los Angeles Center
04:53AM 35.2783 -117.5364 247° West 377 434 13,600 -1,980 Descending Los Angeles Center
04:54AM 35.2225 -117.6692 243° Southwest 374 430 11,400 -1,860 Descending Los Angeles Center
04:55AM 35.1733 -117.7664 238° Southwest 357 411 9,900 -1,200 Descending Los Angeles Center
04:56AM 35.1500 -117.8636 254° West 315 362 9,000 -480 Descending Los Angeles Center
04:57AM 35.1300 -117.9550 255° West 287 330 9,000 -120 Level Los Angeles Center
04:58AM 35.1100 -118.0467 255° West 284 327 8,800 -900 Descending Los Angeles Center
04:59AM 35.0811 -118.1144 243° Southwest 247 284 7,300 -1,800 Descending Los Angeles Center
05:00AM 35.0433 -118.1731 232° Southwest 232 267 5,300 -1,620 Descending Los Angeles Center
05:01AM 35.0106 -118.1336 135° Southeast 207 238 4,100 -1,200 Descending Los Angeles Center
05:02AM 35.0378 -118.1250 15° North 170 196 3,000 -720 Descending Los Angeles Center
05:03AM 35.0619 -118.1528 317° Northwest 154 177 2,700 -300 Descending Los Angeles Center